Terminal Aerodrome Forecast
Issued by NWS

Home | Current Version | Previous Version | Text Only | Print | Product List | Glossary On
Versions: 1 2 3 4 5 6 7 8 9 10 11 12 13 14 15 16 17 18
883
FTUS43 KMQT 191528 AAB
TAFCMX
TAF AMD
KCMX 191528Z 1915/2012 21004KT 1/4SM FZFG OVC001
      TEMPO 1915/1917 1SM BR OVC002
     FM191700 21005KT P6SM SCT020
     FM200500 21003KT P6SM BKN030=

USA.gov is the U.S. government's official web portal to all federal, state and local government web resources and services.